Volgoneft-250 — UFQT — position and weather

sailwx.info

Track history (hours):
 
Tides and Currents Weather Stations Pressure Air Temp Water Temp Dewpoint Dewpoint Depression Visibility Wind Speed Wind Dir Waves Ship Positions

Volgoneft-250

Last reported at 2016-May-26 04:33 UTC. Time now 2016-May-31 14:18 UTC.
Position N 47°04' E 038°47'.

Length 132 m; draft 2.7 m.

Type: Tanker. MMSI: 273340600.

Date/timePositionNaut miles runAvg speedWind from/ knotsBaromVisibWave heightAir tempDewpointWater temp
2016-May-26 04:33N 47°04' E 038°47'7 6.8
2016-May-26 03:32N 47°00' E 038°38'7 7.4
2016-May-26 02:33N 47°00' E 038°28'7 7.5
2016-May-26 01:33N 47°00' E 038°17'8 7.8
2016-May-26 00:33N 46°57' E 038°06'8 7.8
2016-May-25 23:31N 46°54' E 037°55'7 7.4
2016-May-25 22:33N 46°52' E 037°45'8 7.5
2016-May-25 21:32N 46°50' E 037°34'77 7.5
2016-May-25 11:13N 45°39' E 036°52'5 6.9
2016-May-25 10:30N 45°35' E 036°48'7 7.2
2016-May-25 09:33N 45°29' E 036°43'9 9.0
2016-May-25 08:33N 45°21' E 036°38'8 8.5
2016-May-25 07:33N 45°16' E 036°29'5 4.8
2016-May-25 06:33N 45°11' E 036°30'0 0.0
2016-May-25 05:33N 45°11' E 036°30'0 0.0
2016-May-25 04:33N 45°11' E 036°30'0 0.0
2016-May-25 03:33N 45°11' E 036°30'0 0.0
2016-May-25 02:33N 45°11' E 036°30'0 0.0
2016-May-25 01:33N 45°11' E 036°30'0 0.0
2016-May-25 00:33N 45°11' E 036°30'0 0.0
2016-May-24 23:33N 45°11' E 036°30'0 0.0
2016-May-24 22:33N 45°11' E 036°30'0 0.0
2016-May-24 21:33N 45°11' E 036°30'0 0.0
2016-May-24 20:31N 45°11' E 036°30'0 0.1
2016-May-24 19:31N 45°11' E 036°30'0 0.0
2016-May-24 18:12N 45°11' E 036°30'0 0.0
2016-May-24 17:30N 45°11' E 036°30'6 0.4
2016-May-24 03:17N 45°06' E 036°35'0 0.0
2016-May-24 02:33N 45°06' E 036°35'0 0.1
2016-May-24 01:27N 45°06' E 036°35'6 5.1
2016-May-24 00:17N 45°10' E 036°28'6 7.7
2016-May-23 23:34N 45°15' E 036°28'5 4.9
2016-May-23 22:33N 45°19' E 036°33'5 5.0
2016-May-23 21:33N 45°21' E 036°40'7 6.6
2016-May-23 20:33N 45°27' E 036°42'2 2.3
2016-May-23 19:32N 45°29' E 036°44'0 0.0
2016-May-23 18:33N 45°29' E 036°44'0 0.0
2016-May-23 17:33N 45°29' E 036°44'0 0.0
2016-May-23 16:33N 45°29' E 036°44'0 0.0
2016-May-23 15:33N 45°29' E 036°44'0 0.0
2016-May-23 14:34N 45°29' E 036°44'0 0.0
2016-May-23 13:34N 45°29' E 036°44'0 0.0
2016-May-23 12:33N 45°29' E 036°44'0 0.0
2016-May-23 11:31N 45°29' E 036°44'0 0.0
2016-May-23 10:34N 45°29' E 036°44'0 0.0
2016-May-23 09:34N 45°29' E 036°44'0 0.0
2016-May-23 08:34N 45°29' E 036°44'0 0.0
2016-May-23 07:34N 45°29' E 036°44'0 0.0
2016-May-23 06:34N 45°29' E 036°44'0 0.0
2016-May-23 05:33N 45°29' E 036°44'0 0.0
2016-May-23 04:34N 45°29' E 036°44'0 0.0
2016-May-23 03:34N 45°29' E 036°44'0 0.0
2016-May-23 02:34N 45°29' E 036°44'0 0.0
2016-May-23 01:33N 45°29' E 036°44'0 0.0
2016-May-23 00:34N 45°29' E 036°44'0 0.0
2016-May-22 23:34N 45°29' E 036°44'0 0.0
2016-May-22 22:33N 45°29' E 036°44'0 0.0
2016-May-22 21:33N 45°29' E 036°44'0 0.0
2016-May-22 20:33N 45°29' E 036°44'0 0.0
2016-May-22 19:34N 45°29' E 036°44'0 0.0
2016-May-22 18:33N 45°29' E 036°44'0 0.0
2016-May-22 17:33N 45°29' E 036°44'0 0.0
2016-May-22 16:33N 45°29' E 036°44'0 0.0
2016-May-22 15:33N 45°29' E 036°44'0 0.0
2016-May-22 14:33N 45°29' E 036°44'0 0.0
2016-May-22 13:33N 45°29' E 036°44'0 0.0
2016-May-22 12:33N 45°29' E 036°44'0 0.0
2016-May-22 11:33N 45°29' E 036°44'0 0.0
2016-May-22 10:34N 45°29' E 036°44'0 0.0
2016-May-22 09:33N 45°29' E 036°44'0 0.0
2016-May-22 08:33N 45°29' E 036°44'0 0.0
2016-May-22 07:33N 45°29' E 036°44'2 1.9
2016-May-22 06:26N 45°30' E 036°47'0 0.3
2016-May-22 05:33N 45°30' E 036°47'0 0.0
2016-May-22 04:33N 45°30' E 036°47'0 0.0
2016-May-22 03:33N 45°30' E 036°47'0 0.0
2016-May-22 01:33N 45°30' E 036°47'0 0.0
2016-May-22 00:32N 45°30' E 036°47'0 0.0
2016-May-21 23:33N 45°30' E 036°47'0 0.1
2016-May-21 22:32N 45°30' E 036°47'0 0.0
2016-May-21 21:33N 45°30' E 036°47'0 0.0
2016-May-21 20:33N 45°30' E 036°47'0 0.0
2016-May-21 19:33N 45°30' E 036°47'0 0.0
2016-May-21 18:33N 45°30' E 036°47'0 0.0
2016-May-21 17:33N 45°30' E 036°47'0 0.0
2016-May-21 16:33N 45°30' E 036°47'0 0.0
2016-May-21 15:33N 45°30' E 036°47'0 0.0
2016-May-21 14:33N 45°30' E 036°47'0 0.0
2016-May-21 13:33N 45°30' E 036°47'0 0.0
2016-May-21 12:33N 45°30' E 036°47'0 0.0
2016-May-21 11:33N 45°30' E 036°47'0 0.0
2016-May-21 10:33N 45°30' E 036°47'0 0.0
2016-May-21 09:33N 45°30' E 036°47'0 0.0
2016-May-21 08:33N 45°30' E 036°47'0 0.0
2016-May-21 07:15N 45°30' E 036°47'0 0.0
2016-May-21 06:31N 45°30' E 036°47'0 0.0
2016-May-21 05:33N 45°30' E 036°47'0 0.0
2016-May-21 04:33N 45°30' E 036°47'0 0.0
2016-May-21 03:33N 45°30' E 036°47'0 0.0
2016-May-21 02:30N 45°30' E 036°47'0 0.0
2016-May-21 01:07N 45°30' E 036°47'0 0.0
2016-May-21 00:33N 45°30' E 036°47'0 0.0
2016-May-20 23:33N 45°30' E 036°47'0 0.0
2016-May-20 22:31N 45°30' E 036°47'0 0.0
2016-May-20 21:33N 45°30' E 036°47'0 0.0
2016-May-20 20:33N 45°30' E 036°47'0 0.0
2016-May-20 19:33N 45°30' E 036°47'0 0.0
2016-May-20 18:33N 45°30' E 036°47'0 0.0
2016-May-20 17:28N 45°30' E 036°47'0 0.0
2016-May-20 16:33N 45°30' E 036°47'0 0.0
2016-May-20 15:33N 45°30' E 036°47'0 0.0
2016-May-20 14:33N 45°30' E 036°47'0 0.0
2016-May-20 13:33N 45°30' E 036°47'0 0.0
2016-May-20 12:25N 45°30' E 036°47'0 0.0
2016-May-20 08:13N 45°30' E 036°47'0 0.0
2016-May-20 02:20N 45°30' E 036°47'0 0.0
2016-May-20 00:18N 45°30' E 036°47'0 0.0
2016-May-19 23:21N 45°30' E 036°47'0 0.0
2016-May-19 20:15N 45°30' E 036°47'0 0.0
2016-May-19 14:33N 45°30' E 036°47'0 0.0
2016-May-19 12:23N 45°30' E 036°47'0 0.0
2016-May-19 10:17N 45°30' E 036°47'0 0.1
2016-May-19 08:29N 45°30' E 036°47'7 6.9
2016-May-19 07:26N 45°37' E 036°50'  
Track history (hours):
 
Tides and Currents Weather Stations Pressure Air Temp Water Temp Dewpoint Dewpoint Depression Visibility Wind Speed Wind Dir Waves Ship Positions

Volgoneft-250

Last reported at 2016-May-26 04:33 UTC. Time now 2016-May-31 14:18 UTC.
Position N 47°04' E 038°47'.

Length 132 m; draft 2.7 m.

Type: Tanker. MMSI: 273340600.

Date/timePositionNaut miles runAvg speedWind from/ knotsBaromVisibWave heightAir tempDewpointWater temp
2016-May-26 04:33N 47°04' E 038°47'7 6.8
2016-May-26 03:32N 47°00' E 038°38'7 7.4
2016-May-26 02:33N 47°00' E 038°28'7 7.5
2016-May-26 01:33N 47°00' E 038°17'8 7.8
2016-May-26 00:33N 46°57' E 038°06'8 7.8
2016-May-25 23:31N 46°54' E 037°55'7 7.4
2016-May-25 22:33N 46°52' E 037°45'8 7.5
2016-May-25 21:32N 46°50' E 037°34'77 7.5
2016-May-25 11:13N 45°39' E 036°52'5 6.9
2016-May-25 10:30N 45°35' E 036°48'7 7.2
2016-May-25 09:33N 45°29' E 036°43'9 9.0
2016-May-25 08:33N 45°21' E 036°38'8 8.5
2016-May-25 07:33N 45°16' E 036°29'5 4.8
2016-May-25 06:33N 45°11' E 036°30'0 0.0
2016-May-25 05:33N 45°11' E 036°30'0 0.0
2016-May-25 04:33N 45°11' E 036°30'0 0.0
2016-May-25 03:33N 45°11' E 036°30'0 0.0
2016-May-25 02:33N 45°11' E 036°30'0 0.0
2016-May-25 01:33N 45°11' E 036°30'0 0.0
2016-May-25 00:33N 45°11' E 036°30'0 0.0
2016-May-24 23:33N 45°11' E 036°30'0 0.0
2016-May-24 22:33N 45°11' E 036°30'0 0.0
2016-May-24 21:33N 45°11' E 036°30'0 0.0
2016-May-24 20:31N 45°11' E 036°30'0 0.1
2016-May-24 19:31N 45°11' E 036°30'0 0.0
2016-May-24 18:12N 45°11' E 036°30'0 0.0
2016-May-24 17:30N 45°11' E 036°30'6 0.4
2016-May-24 03:17N 45°06' E 036°35'0 0.0
2016-May-24 02:33N 45°06' E 036°35'0 0.1
2016-May-24 01:27N 45°06' E 036°35'6 5.1
2016-May-24 00:17N 45°10' E 036°28'6 7.7
2016-May-23 23:34N 45°15' E 036°28'5 4.9
2016-May-23 22:33N 45°19' E 036°33'5 5.0
2016-May-23 21:33N 45°21' E 036°40'7 6.6
2016-May-23 20:33N 45°27' E 036°42'2 2.3
2016-May-23 19:32N 45°29' E 036°44'0 0.0
2016-May-23 18:33N 45°29' E 036°44'0 0.0
2016-May-23 17:33N 45°29' E 036°44'0 0.0
2016-May-23 16:33N 45°29' E 036°44'0 0.0
2016-May-23 15:33N 45°29' E 036°44'0 0.0
2016-May-23 14:34N 45°29' E 036°44'0 0.0
2016-May-23 13:34N 45°29' E 036°44'0 0.0
2016-May-23 12:33N 45°29' E 036°44'0 0.0
2016-May-23 11:31N 45°29' E 036°44'0 0.0
2016-May-23 10:34N 45°29' E 036°44'0 0.0
2016-May-23 09:34N 45°29' E 036°44'0 0.0
2016-May-23 08:34N 45°29' E 036°44'0 0.0
2016-May-23 07:34N 45°29' E 036°44'0 0.0
2016-May-23 06:34N 45°29' E 036°44'0 0.0
2016-May-23 05:33N 45°29' E 036°44'0 0.0
2016-May-23 04:34N 45°29' E 036°44'0 0.0
2016-May-23 03:34N 45°29' E 036°44'0 0.0
2016-May-23 02:34N 45°29' E 036°44'0 0.0
2016-May-23 01:33N 45°29' E 036°44'0 0.0
2016-May-23 00:34N 45°29' E 036°44'0 0.0
2016-May-22 23:34N 45°29' E 036°44'0 0.0
2016-May-22 22:33N 45°29' E 036°44'0 0.0
2016-May-22 21:33N 45°29' E 036°44'0 0.0
2016-May-22 20:33N 45°29' E 036°44'0 0.0
2016-May-22 19:34N 45°29' E 036°44'0 0.0
2016-May-22 18:33N 45°29' E 036°44'0 0.0
2016-May-22 17:33N 45°29' E 036°44'0 0.0
2016-May-22 16:33N 45°29' E 036°44'0 0.0
2016-May-22 15:33N 45°29' E 036°44'0 0.0
2016-May-22 14:33N 45°29' E 036°44'0 0.0
2016-May-22 13:33N 45°29' E 036°44'0 0.0
2016-May-22 12:33N 45°29' E 036°44'0 0.0
2016-May-22 11:33N 45°29' E 036°44'0 0.0
2016-May-22 10:34N 45°29' E 036°44'0 0.0
2016-May-22 09:33N 45°29' E 036°44'0 0.0
2016-May-22 08:33N 45°29' E 036°44'0 0.0
2016-May-22 07:33N 45°29' E 036°44'2 1.9
2016-May-22 06:26N 45°30' E 036°47'0 0.3
2016-May-22 05:33N 45°30' E 036°47'0 0.0
2016-May-22 04:33N 45°30' E 036°47'0 0.0
2016-May-22 03:33N 45°30' E 036°47'0 0.0
2016-May-22 01:33N 45°30' E 036°47'0 0.0
2016-May-22 00:32N 45°30' E 036°47'0 0.0
2016-May-21 23:33N 45°30' E 036°47'0 0.1
2016-May-21 22:32N 45°30' E 036°47'0 0.0
2016-May-21 21:33N 45°30' E 036°47'0 0.0
2016-May-21 20:33N 45°30' E 036°47'0 0.0
2016-May-21 19:33N 45°30' E 036°47'0 0.0
2016-May-21 18:33N 45°30' E 036°47'0 0.0
2016-May-21 17:33N 45°30' E 036°47'0 0.0
2016-May-21 16:33N 45°30' E 036°47'0 0.0
2016-May-21 15:33N 45°30' E 036°47'0 0.0
2016-May-21 14:33N 45°30' E 036°47'0 0.0
2016-May-21 13:33N 45°30' E 036°47'0 0.0
2016-May-21 12:33N 45°30' E 036°47'0 0.0
2016-May-21 11:33N 45°30' E 036°47'0 0.0
2016-May-21 10:33N 45°30' E 036°47'0 0.0
2016-May-21 09:33N 45°30' E 036°47'0 0.0
2016-May-21 08:33N 45°30' E 036°47'0 0.0
2016-May-21 07:15N 45°30' E 036°47'0 0.0
2016-May-21 06:31N 45°30' E 036°47'0 0.0
2016-May-21 05:33N 45°30' E 036°47'0 0.0
2016-May-21 04:33N 45°30' E 036°47'0 0.0
2016-May-21 03:33N 45°30' E 036°47'0 0.0
2016-May-21 02:30N 45°30' E 036°47'0 0.0
2016-May-21 01:07N 45°30' E 036°47'0 0.0
2016-May-21 00:33N 45°30' E 036°47'0 0.0
2016-May-20 23:33N 45°30' E 036°47'0 0.0
2016-May-20 22:31N 45°30' E 036°47'0 0.0
2016-May-20 21:33N 45°30' E 036°47'0 0.0
2016-May-20 20:33N 45°30' E 036°47'0 0.0
2016-May-20 19:33N 45°30' E 036°47'0 0.0
2016-May-20 18:33N 45°30' E 036°47'0 0.0
2016-May-20 17:28N 45°30' E 036°47'0 0.0
2016-May-20 16:33N 45°30' E 036°47'0 0.0
2016-May-20 15:33N 45°30' E 036°47'0 0.0
2016-May-20 14:33N 45°30' E 036°47'0 0.0
2016-May-20 13:33N 45°30' E 036°47'0 0.0
2016-May-20 12:25N 45°30' E 036°47'0 0.0
2016-May-20 08:13N 45°30' E 036°47'0 0.0
2016-May-20 02:20N 45°30' E 036°47'0 0.0
2016-May-20 00:18N 45°30' E 036°47'0 0.0
2016-May-19 23:21N 45°30' E 036°47'0 0.0
2016-May-19 20:15N 45°30' E 036°47'0 0.0
2016-May-19 14:33N 45°30' E 036°47'0 0.0
2016-May-19 12:23N 45°30' E 036°47'0 0.0
2016-May-19 10:17N 45°30' E 036°47'0 0.1
2016-May-19 08:29N 45°30' E 036°47'7 6.9
2016-May-19 07:26N 45°37' E 036°50'  

Dump ship's entire track history